Time;durP1;ratioP1;P1;durP2;ratioP2;P2;SDS_P1;SDS_P2;PMS_P1;PMS_P2;Temp;Humidity;BMP_temperature;BMP_pressure;BME280_temperature;BME280_humidity;BME280_pressure;Samples;Min_cycle;Max_cycle;Signal;HPM_P1;HPM_P2
2022/04/20 00:02:04;;;;;;;6.23;4.20;;;9.00;1.00;;;;;;5009854;28;20513;-81
2022/04/20 00:04:36;;;;;;;4.73;3.53;;;9.00;1.00;;;;;;5012499;28;20453;-81
2022/04/20 00:07:04;;;;;;;7.97;3.93;;;9.00;1.00;;;;;;4991749;28;20480;-81
2022/04/20 00:09:37;;;;;;;5.70;3.70;;;9.10;1.00;;;;;;5000569;28;20451;-82
2022/04/20 00:12:19;;;;;;;5.78;3.55;;;9.10;1.00;;;;;;5024678;28;20448;-84
2022/04/20 00:14:47;;;;;;;5.90;3.83;;;9.10;1.00;;;;;;5014857;22;20248;-83
2022/04/20 00:17:16;;;;;;;5.23;4.07;;;9.10;1.00;;;;;;5028320;28;20490;-84
2022/04/20 00:19:46;;;;;;;5.90;3.90;;;9.10;1.00;;;;;;5029533;28;21295;-83
2022/04/20 00:22:16;;;;;;;5.00;3.70;;;9.00;1.00;;;;;;5032299;28;20579;-82
2022/04/20 00:37:08;;;;;;;7.87;3.30;;;9.00;1.00;;;;;;5129559;23;40390;-83
2022/04/20 00:39:37;;;;;;;5.73;3.40;;;9.00;1.00;;;;;;4999985;28;20465;-85
2022/04/20 00:42:07;;;;;;;4.40;3.43;;;9.00;1.00;;;;;;5014531;28;20473;-83
2022/04/20 00:44:38;;;;;;;5.97;4.03;;;8.90;1.00;;;;;;5013930;28;20509;-85
2022/04/20 00:47:08;;;;;;;5.70;3.90;;;8.90;1.00;;;;;;4991044;28;20537;-83
2022/04/20 00:49:39;;;;;;;4.03;2.70;;;8.90;1.00;;;;;;4977499;28;20958;-82
2022/04/20 00:52:08;;;;;;;6.43;3.50;;;8.80;1.00;;;;;;4985508;28;20481;-86
2022/04/20 00:54:36;;;;;;;6.07;3.60;;;8.80;1.00;;;;;;4966727;28;20639;-83
2022/04/20 00:57:06;;;;;;;4.53;3.28;;;8.70;1.00;;;;;;5011929;28;20424;-87
2022/04/20 00:59:35;;;;;;;6.43;3.60;;;8.70;1.00;;;;;;5006658;28;20248;-83
2022/04/20 01:02:06;;;;;;;6.20;3.90;;;8.70;1.00;;;;;;4988446;28;20426;-83
2022/04/20 01:04:32;;;;;;;5.40;3.35;;;8.60;1.00;;;;;;5001880;28;20723;-82
2022/04/20 01:07:00;;;;;;;7.07;4.20;;;8.60;1.00;;;;;;4993856;28;20442;-86
2022/04/20 01:09:28;;;;;;;5.80;4.07;;;8.60;1.00;;;;;;5007802;28;20256;-86
2022/04/20 01:11:56;;;;;;;7.53;3.40;;;8.60;1.00;;;;;;5026446;28;20212;-86
2022/04/20 01:14:23;;;;;;;6.25;3.15;;;8.70;1.00;;;;;;5019783;28;20423;-82
2022/04/20 01:16:49;;;;;;;4.82;3.40;;;8.70;1.00;;;;;;5017412;28;20237;-86
2022/04/20 01:19:16;;;;;;;6.70;4.10;;;8.70;1.00;;;;;;5011434;28;20232;-85
2022/04/20 01:21:44;;;;;;;7.80;4.20;;;8.70;1.00;;;;;;5014742;28;20433;-85
2022/04/20 01:24:15;;;;;;;5.18;3.97;;;8.70;1.00;;;;;;5028191;28;20414;-85
2022/04/20 01:26:44;;;;;;;5.13;3.80;;;8.70;1.00;;;;;;5024573;28;20271;-83
2022/04/20 01:29:11;;;;;;;5.40;3.77;;;8.60;1.00;;;;;;5010275;28;20235;-85
2022/04/20 01:31:38;;;;;;;5.05;3.30;;;8.60;1.00;;;;;;4995580;28;20412;-86
2022/04/20 01:34:09;;;;;;;7.80;4.10;;;8.60;1.00;;;;;;5023621;28;20233;-87
2022/04/20 01:36:36;;;;;;;5.75;3.97;;;8.60;1.00;;;;;;5006339;28;20243;-87
2022/04/20 01:39:06;;;;;;;7.10;4.03;;;8.60;1.00;;;;;;5019861;28;20227;-86
2022/04/20 01:41:32;;;;;;;6.30;3.70;;;8.60;1.00;;;;;;5004455;28;20425;-85
2022/04/20 01:43:59;;;;;;;5.27;4.00;;;8.60;1.00;;;;;;5005508;28;20419;-85
2022/04/20 01:46:26;;;;;;;6.40;3.50;;;8.60;1.00;;;;;;5001657;28;20433;-85
2022/04/20 01:48:52;;;;;;;7.03;4.30;;;8.60;1.00;;;;;;5025662;28;20476;-87
2022/04/20 01:54:08;;;;;;;6.80;5.00;;;8.60;1.00;;;;;;4996454;28;24013;-86
2022/04/20 01:56:34;;;;;;;8.73;5.55;;;8.60;1.00;;;;;;5007578;28;20237;-86
2022/04/20 01:59:04;;;;;;;5.87;4.10;;;8.50;1.00;;;;;;5018672;28;21160;-86
2022/04/20 02:04:14;;;;;;;5.28;3.75;;;8.50;1.00;;;;;;5055300;23;20222;-86
2022/04/20 02:06:47;;;;;;;6.40;4.20;;;8.50;1.00;;;;;;5006039;28;20272;-84
2022/04/20 02:09:27;;;;;;;6.80;4.93;;;8.50;1.00;;;;;;4990187;28;20241;-86
2022/04/20 02:11:56;;;;;;;7.75;4.85;;;8.50;1.00;;;;;;4992703;28;20220;-86
2022/04/20 02:14:47;;;;;;;7.50;4.80;;;8.50;1.00;;;;;;4962301;28;20242;-83
2022/04/20 02:17:17;;;;;;;5.33;4.60;;;8.60;1.00;;;;;;4996902;28;20430;-86
2022/04/20 02:19:47;;;;;;;9.67;4.27;;;8.60;1.00;;;;;;4968933;28;20623;-84
2022/04/20 02:22:17;;;;;;;7.03;4.57;;;8.50;1.00;;;;;;5003179;28;20459;-85
2022/04/20 02:24:48;;;;;;;6.90;4.50;;;8.60;1.00;;;;;;4982930;28;20434;-83
2022/04/20 02:27:27;;;;;;;5.68;3.88;;;8.60;1.00;;;;;;5019401;28;20441;-86
2022/04/20 02:29:56;;;;;;;9.63;5.20;;;8.60;1.00;;;;;;4985497;28;20237;-87
2022/04/20 02:32:37;;;;;;;9.00;5.30;;;8.60;1.00;;;;;;4978025;28;20295;-87
2022/04/20 02:35:07;;;;;;;8.60;4.97;;;8.50;1.00;;;;;;4963832;28;20617;-85
2022/04/20 02:37:39;;;;;;;8.65;5.03;;;8.50;1.00;;;;;;4980705;28;20241;-86
2022/04/20 02:40:27;;;;;;;8.00;4.50;;;8.50;1.00;;;;;;4998695;28;20242;-85
2022/04/20 02:43:07;;;;;;;8.23;4.88;;;8.60;1.00;;;;;;5003121;28;20455;-85
2022/04/20 02:45:39;;;;;;;5.50;4.32;;;8.50;1.00;;;;;;4976284;28;20246;-85
2022/04/20 02:48:09;;;;;;;8.13;4.88;;;8.60;1.00;;;;;;4989652;28;20372;-83
2022/04/20 02:50:36;;;;;;;7.33;4.87;;;8.60;1.00;;;;;;4998927;28;20216;-86
2022/04/20 02:53:20;;;;;;;;;;;;;;;;;;;;;
2022/04/20 02:56:06;;;;;;;8.70;5.70;;;8.70;1.00;;;;;;5014876;28;50381;-85
2022/04/20 02:58:47;;;;;;;8.90;5.57;;;8.60;1.00;;;;;;4993235;28;20462;-86
2022/04/20 03:01:18;;;;;;;10.30;4.77;;;8.60;1.00;;;;;;4983849;28;20236;-83
2022/04/20 03:03:46;;;;;;;9.10;5.40;;;8.70;1.00;;;;;;4981442;28;20426;-86
2022/04/20 03:06:19;;;;;;;7.00;5.32;;;8.70;1.00;;;;;;5024597;28;20978;-83
2022/04/20 03:08:48;;;;;;;8.48;5.60;;;8.70;1.00;;;;;;4984329;28;20239;-86
2022/04/20 03:11:17;;;;;;;6.47;5.13;;;8.70;1.00;;;;;;5003863;28;20238;-84
2022/04/20 03:13:46;;;;;;;9.05;5.63;;;8.70;1.00;;;;;;5020981;28;20450;-86
2022/04/20 03:16:28;;;;;;;8.18;5.47;;;8.70;1.00;;;;;;5005610;28;20230;-85
2022/04/20 03:18:56;;;;;;;9.23;5.40;;;8.70;1.00;;;;;;4977450;28;20233;-85
2022/04/20 03:21:27;;;;;;;6.28;5.45;;;8.70;1.00;;;;;;4998604;28;20229;-84
2022/04/20 03:23:56;;;;;;;7.20;5.57;;;8.80;1.00;;;;;;4996986;28;20245;-86
2022/04/20 03:26:39;;;;;;;10.80;6.13;;;8.70;1.00;;;;;;4994464;28;20452;-85
2022/04/20 03:29:08;;;;;;;10.23;6.30;;;8.70;1.00;;;;;;4972094;28;20249;-85
2022/04/20 03:31:38;;;;;;;8.23;5.43;;;8.70;1.00;;;;;;4969860;28;20519;-87
2022/04/20 03:34:06;;;;;;;7.60;5.35;;;8.80;1.00;;;;;;4978457;28;20500;-86
2022/04/20 03:36:37;;;;;;;9.13;6.00;;;8.70;1.00;;;;;;4992739;28;20289;-83
2022/04/20 03:39:17;;;;;;;9.10;6.05;;;8.80;1.00;;;;;;4986258;28;20259;-85
2022/04/20 03:41:48;;;;;;;8.77;6.03;;;8.80;1.00;;;;;;4980452;28;20239;-86
2022/04/20 03:44:16;;;;;;;9.77;6.20;;;8.80;1.00;;;;;;4983089;28;20436;-86
2022/04/20 03:46:58;;;;;;;11.52;6.57;;;8.90;1.00;;;;;;4980896;28;21403;-86
2022/04/20 03:49:28;;;;;;;9.02;5.72;;;8.90;1.00;;;;;;4983625;28;20243;-84
2022/04/20 03:51:57;;;;;;;10.55;7.13;;;8.90;1.00;;;;;;5002855;28;20277;-87
2022/04/20 03:54:29;;;;;;;8.03;5.70;;;8.90;1.00;;;;;;4987222;28;20228;-86
2022/04/20 03:59:49;;;;;;;11.05;7.95;;;8.90;1.00;;;;;;4962208;28;20263;-85
2022/04/20 04:02:18;;;;;;;12.27;6.90;;;8.90;1.00;;;;;;4981465;28;20291;-87
2022/04/20 04:04:47;;;;;;;7.67;5.63;;;8.90;1.00;;;;;;4964763;28;20253;-84
2022/04/20 04:07:17;;;;;;;8.67;6.97;;;8.90;1.00;;;;;;4991545;28;20429;-87
2022/04/20 04:09:47;;;;;;;8.73;5.50;;;8.90;1.00;;;;;;5005423;28;20454;-87
2022/04/20 04:12:28;;;;;;;8.83;6.30;;;8.90;1.00;;;;;;4993220;28;20263;-86
2022/04/20 04:14:54;;;;;;;12.13;6.67;;;8.90;1.00;;;;;;4986738;28;21201;-84
2022/04/20 04:17:27;;;;;;;9.77;6.50;;;8.80;1.00;;;;;;4983979;28;20488;-83
2022/04/20 04:20:00;;;;;;;9.98;6.68;;;8.90;1.00;;;;;;5008714;28;20250;-83
2022/04/20 04:22:27;;;;;;;8.90;7.00;;;8.90;1.00;;;;;;4989590;28;20453;-87
2022/04/20 04:24:53;;;;;;;14.00;8.27;;;8.80;1.00;;;;;;5004625;28;20236;-84
2022/04/20 04:27:29;;;;;;;11.50;8.23;;;8.80;1.00;;;;;;4987329;28;20488;-84
2022/04/20 04:30:01;;;;;;;10.15;7.30;;;8.80;1.00;;;;;;4989653;28;20249;-85
2022/04/20 04:32:28;;;;;;;12.13;8.60;;;8.80;1.00;;;;;;5005085;28;20241;-84
2022/04/20 04:34:56;;;;;;;11.50;7.40;;;8.80;1.00;;;;;;5013215;28;20458;-86
2022/04/20 04:37:23;;;;;;;10.27;7.70;;;9.00;1.00;;;;;;4992032;28;20504;-84
2022/04/20 04:39:52;;;;;;;10.40;7.80;;;9.00;1.00;;;;;;5004179;28;21059;-83
2022/04/20 04:42:20;;;;;;;9.50;7.53;;;9.10;1.00;;;;;;4995626;28;20340;-83
2022/04/20 04:50:05;;;;;;;13.27;8.30;;;9.20;1.00;;;;;;5038559;28;20231;-86
2022/04/20 04:52:37;;;;;;;9.43;7.20;;;9.30;1.00;;;;;;5037992;28;20454;-88
2022/04/20 04:55:04;;;;;;;10.50;7.30;;;9.30;1.00;;;;;;5039761;28;20966;-86
2022/04/20 04:57:35;;;;;;;10.70;8.30;;;9.30;1.00;;;;;;5037132;28;21364;-86
2022/04/20 05:00:05;;;;;;;8.65;6.47;;;9.30;1.00;;;;;;5041719;28;20443;-84
2022/04/20 05:02:39;;;;;;;10.17;7.80;;;9.40;1.00;;;;;;5018420;28;20228;-85
2022/04/20 05:05:30;;;;;;;;;;;;;;;;;;;;;
2022/04/20 05:07:58;;;;;;;10.43;7.90;;;9.60;1.00;;;;;;5033166;28;47796;-84
2022/04/20 05:10:28;;;;;;;10.40;8.50;;;9.60;1.00;;;;;;5033033;28;20435;-87
2022/04/20 05:12:58;;;;;;;11.00;8.03;;;9.50;1.00;;;;;;5027920;28;20490;-87
2022/04/20 05:15:27;;;;;;;8.00;7.20;;;9.50;1.00;;;;;;5009384;22;20436;-85
2022/04/20 05:17:58;;;;;;;12.90;8.30;;;9.50;1.00;;;;;;4973344;28;20463;-87
2022/04/20 05:20:28;;;;;;;9.97;8.00;;;9.40;1.00;;;;;;4945896;28;20452;-84
2022/04/20 05:22:57;;;;;;;7.90;6.90;;;9.50;1.00;;;;;;4952651;28;20432;-82
2022/04/20 05:25:27;;;;;;;9.50;8.03;;;9.60;1.00;;;;;;4928352;28;20446;-79
2022/04/20 05:31:44;;;;;;;;;;;;;;;;;;;;;
2022/04/20 05:34:19;;;;;;;8.17;6.67;;;9.50;1.00;;;;;;4860642;28;50745;-80
2022/04/20 05:42:28;;;;;;;9.90;7.43;;;9.50;1.00;;;;;;4904675;28;21333;-80
2022/04/20 05:44:55;;;;;;;8.90;6.60;;;9.50;1.00;;;;;;4917829;28;20551;-81
2022/04/20 05:47:29;;;;;;;9.23;8.30;;;9.50;1.00;;;;;;4950973;28;22408;-80
2022/04/20 05:49:57;;;;;;;13.13;8.10;;;9.60;1.00;;;;;;4946771;28;20653;-80
2022/04/20 05:52:27;;;;;;;12.50;9.17;;;9.70;1.00;;;;;;4944841;28;20668;-80
2022/04/20 05:54:53;;;;;;;14.07;9.20;;;9.70;1.00;;;;;;4947623;28;21411;-80
2022/04/20 05:57:20;;;;;;;12.50;8.30;;;9.80;1.00;;;;;;4955204;28;20483;-81
2022/04/20 05:59:47;;;;;;;12.97;7.87;;;10.00;1.00;;;;;;4944278;28;20461;-80
2022/04/20 06:02:13;;;;;;;11.63;8.70;;;10.10;1.00;;;;;;4940072;28;20735;-80
2022/04/20 06:04:42;;;;;;;10.83;7.80;;;10.20;1.00;;;;;;4917490;28;20553;-80
2022/04/20 06:07:18;;;;;;;8.17;7.03;;;10.20;1.00;;;;;;4923825;28;20580;-81
2022/04/20 06:09:47;;;;;;;11.37;8.03;;;10.20;1.00;;;;;;4950828;28;20450;-77
2022/04/20 06:12:13;;;;;;;11.63;7.50;;;10.40;1.00;;;;;;4946792;28;21229;-77
2022/04/20 06:14:40;;;;;;;12.47;7.87;;;10.60;1.00;;;;;;4921745;28;20643;-77
2022/04/20 06:17:07;;;;;;;9.37;7.03;;;10.70;1.00;;;;;;4954294;28;21143;-78
2022/04/20 06:19:35;;;;;;;9.43;7.00;;;10.80;1.00;;;;;;4934743;28;20441;-76
2022/04/20 06:22:02;;;;;;;11.17;8.03;;;10.80;1.00;;;;;;4954792;28;20548;-78
2022/04/20 06:24:30;;;;;;;12.13;8.00;;;10.90;1.00;;;;;;4939963;28;21463;-77
2022/04/20 06:26:56;;;;;;;10.23;7.17;;;11.00;1.00;;;;;;4916619;28;20633;-76
2022/04/20 06:29:27;;;;;;;8.47;6.47;;;11.30;1.00;;;;;;4950035;28;20505;-78
2022/04/20 06:31:53;;;;;;;10.10;7.93;;;11.20;1.00;;;;;;4944391;28;20492;-78
2022/04/20 06:34:20;;;;;;;10.60;6.90;;;11.30;1.00;;;;;;4969683;28;21315;-79
2022/04/20 06:36:48;;;;;;;10.97;6.63;;;11.20;1.00;;;;;;4962396;28;20448;-80
2022/04/20 06:39:17;;;;;;;11.57;7.30;;;11.10;1.00;;;;;;4972984;28;20567;-78
2022/04/20 06:41:46;;;;;;;10.07;6.83;;;11.00;1.00;;;;;;4952939;28;20516;-80
2022/04/20 06:44:16;;;;;;;9.73;7.00;;;11.00;1.00;;;;;;4949456;28;20468;-80
2022/04/20 06:46:47;;;;;;;14.73;9.27;;;10.80;1.00;;;;;;4943181;28;20448;-81
2022/04/20 06:49:14;;;;;;;10.10;7.23;;;10.70;1.00;;;;;;4958322;28;20496;-81
2022/04/20 06:59:57;;;;;;;7.50;6.80;;;11.60;1.00;;;;;;4951707;28;20472;-80
2022/04/20 07:02:27;;;;;;;10.13;8.87;;;11.70;1.00;;;;;;4946296;28;20535;-81
2022/04/20 07:04:53;;;;;;;7.80;5.70;;;11.80;1.00;;;;;;4955468;28;20444;-80
2022/04/20 07:07:20;;;;;;;7.63;6.57;;;11.90;1.00;;;;;;4961985;28;20472;-78
2022/04/20 07:09:47;;;;;;;8.60;5.97;;;12.10;1.00;;;;;;4965043;28;20458;-78
2022/04/20 07:12:15;;;;;;;7.17;6.00;;;12.10;1.00;;;;;;4958404;28;20468;-79
2022/04/20 07:14:48;;;;;;;6.20;5.10;;;12.20;1.00;;;;;;4930217;28;20626;-79
2022/04/20 07:17:15;;;;;;;6.70;5.70;;;12.30;1.00;;;;;;4962198;28;20465;-79
2022/04/20 07:19:41;;;;;;;10.77;6.70;;;12.40;1.00;;;;;;4944606;28;20480;-79
2022/04/20 07:22:08;;;;;;;7.07;6.30;;;12.40;1.00;;;;;;4976548;28;20484;-79
2022/04/20 07:24:39;;;;;;;9.50;6.50;;;12.30;1.00;;;;;;4960018;28;20435;-77
2022/04/20 07:27:08;;;;;;;7.90;5.57;;;12.40;1.00;;;;;;4923734;28;20587;-80
2022/04/20 07:29:39;;;;;;;7.77;6.50;;;12.30;1.00;;;;;;4933338;28;20448;-78
2022/04/20 07:32:09;;;;;;;7.93;5.70;;;12.10;1.00;;;;;;4928180;28;20484;-78
2022/04/20 07:34:37;;;;;;;8.63;5.40;;;12.10;1.00;;;;;;4940697;28;20465;-79
2022/04/20 07:37:09;;;;;;;14.73;13.33;;;12.10;1.00;;;;;;4947455;28;21481;-79
2022/04/20 07:39:41;;;;;;;7.13;5.80;;;12.00;1.00;;;;;;4949746;28;20445;-79
2022/04/20 07:42:09;;;;;;;5.77;5.17;;;12.00;1.00;;;;;;4936425;28;20452;-80
2022/04/20 07:44:38;;;;;;;7.37;6.60;;;11.90;1.00;;;;;;4943532;28;20451;-75
2022/04/20 07:47:06;;;;;;;8.87;5.33;;;12.00;1.00;;;;;;4957871;28;20599;-78
2022/04/20 07:52:18;;;;;;;7.07;5.60;;;12.30;1.00;;;;;;4924184;28;20588;-77
2022/04/20 07:54:56;;;;;;;6.30;5.27;;;12.40;1.00;;;;;;4930809;28;20962;-75
2022/04/20 07:57:27;;;;;;;9.67;7.80;;;12.70;1.00;;;;;;4947073;28;20428;-77
2022/04/20 07:59:55;;;;;;;6.40;4.70;;;13.20;1.00;;;;;;4953199;28;20480;-77
2022/04/20 08:02:23;;;;;;;7.20;5.40;;;13.60;1.00;;;;;;4935753;28;21262;-76
2022/04/20 08:04:52;;;;;;;6.63;5.00;;;13.90;1.00;;;;;;4918866;28;20476;-76
2022/04/20 08:07:19;;;;;;;5.87;4.77;;;14.00;1.00;;;;;;4919499;28;21469;-74
2022/04/20 08:09:47;;;;;;;7.47;5.00;;;14.00;1.00;;;;;;4952536;28;20424;-75
2022/04/20 08:12:14;;;;;;;7.37;5.30;;;14.10;1.00;;;;;;4941517;28;20486;-76
2022/04/20 08:14:40;;;;;;;8.73;4.67;;;14.30;1.00;;;;;;4940666;28;20461;-75
2022/04/20 08:17:09;;;;;;;7.63;4.40;;;14.40;1.00;;;;;;4939128;28;20457;-74
2022/04/20 08:19:35;;;;;;;4.80;4.30;;;14.60;1.00;;;;;;4951003;28;21658;-76
2022/04/20 08:22:06;;;;;;;7.10;4.53;;;14.60;1.00;;;;;;4953125;28;20448;-76
2022/04/20 08:24:37;;;;;;;9.37;6.23;;;14.70;1.00;;;;;;4942348;28;20496;-77
2022/04/20 08:27:04;;;;;;;4.70;3.57;;;14.70;1.00;;;;;;4955842;28;20466;-76
2022/04/20 08:29:34;;;;;;;6.50;4.13;;;14.70;1.00;;;;;;4959386;28;20492;-76
2022/04/20 08:32:02;;;;;;;6.50;3.60;;;14.80;1.00;;;;;;4950947;28;21114;-77
2022/04/20 08:34:30;;;;;;;5.70;3.73;;;15.10;1.00;;;;;;4953904;28;20974;-76
2022/04/20 08:36:56;;;;;;;5.70;3.30;;;15.30;1.00;;;;;;4952269;28;20674;-76
2022/04/20 08:39:27;;;;;;;5.10;2.57;;;15.30;1.00;;;;;;4950514;28;20495;-78
2022/04/20 08:41:55;;;;;;;6.83;3.70;;;15.40;1.00;;;;;;4952424;28;20614;-76
2022/04/20 08:44:28;;;;;;;6.63;3.70;;;15.50;1.00;;;;;;4957002;28;20521;-76
2022/04/20 08:46:59;;;;;;;11.27;4.00;;;15.50;1.00;;;;;;4949243;28;20471;-74
2022/04/20 08:49:28;;;;;;;4.77;3.60;;;15.20;1.00;;;;;;4952421;28;20557;-74
2022/04/20 08:54:50;;;;;;;6.37;3.50;;;15.00;1.00;;;;;;4890260;28;20529;-75
2022/04/20 08:57:19;;;;;;;5.03;3.97;;;15.10;1.00;;;;;;4956003;28;20553;-77
2022/04/20 08:59:49;;;;;;;5.70;3.63;;;14.80;1.00;;;;;;4954418;28;20443;-78
2022/04/20 09:02:16;;;;;;;6.60;3.23;;;14.60;1.00;;;;;;4936770;28;20484;-81
2022/04/20 09:07:58;;;;;;;6.20;3.53;;;14.10;1.00;;;;;;5012351;23;20480;-82
2022/04/20 09:10:37;;;;;;;6.77;3.90;;;13.90;1.00;;;;;;4990199;28;20525;-82
2022/04/20 09:13:41;;;;;;;;;;;;;;;;;;;;;
2022/04/20 09:16:10;;;;;;;8.07;3.50;;;13.50;1.00;;;;;;4999085;28;50642;-82
2022/04/20 09:18:39;;;;;;;5.77;4.20;;;13.30;1.00;;;;;;5001997;28;21318;-76
2022/04/20 09:21:08;;;;;;;6.67;5.13;;;13.20;1.00;;;;;;5004202;28;20521;-80
2022/04/20 09:23:37;;;;;;;6.10;4.10;;;13.10;1.00;;;;;;4999844;28;20459;-82
2022/04/20 09:26:11;;;;;;;6.50;4.63;;;13.00;1.00;;;;;;4998916;28;20442;-77
2022/04/20 09:28:40;;;;;;;5.30;4.80;;;13.00;1.00;;;;;;4994938;28;21388;-77
2022/04/20 09:31:09;;;;;;;5.73;4.30;;;12.80;1.00;;;;;;4999246;28;20516;-78
2022/04/20 09:33:50;;;;;;;6.57;4.80;;;12.70;1.00;;;;;;4995675;28;20540;-79
2022/04/20 09:59:29;;;;;;;6.20;5.10;;;12.50;1.00;;;;;;5261006;23;20440;-80
2022/04/20 10:02:17;;;;;;;7.40;5.50;;;12.50;1.00;;;;;;5018535;28;20461;-81
2022/04/20 10:04:48;;;;;;;6.57;4.60;;;12.50;1.00;;;;;;5027750;28;20522;-80
2022/04/20 10:07:16;;;;;;;6.30;5.07;;;12.60;1.00;;;;;;5010068;28;20458;-81
2022/04/20 10:10:18;;;;;;;6.30;4.80;;;12.60;1.00;;;;;;5012795;28;20443;-81
2022/04/20 10:12:54;;;;;;;7.30;5.50;;;12.70;1.00;;;;;;4991399;28;20454;-82
2022/04/20 10:18:18;;;;;;;6.43;4.73;;;12.60;1.00;;;;;;4991278;28;20447;-83
2022/04/20 10:20:52;;;;;;;5.80;5.00;;;12.80;1.00;;;;;;4995233;28;20420;-82
2022/04/20 10:23:20;;;;;;;5.37;4.70;;;13.00;1.00;;;;;;4994480;28;21377;-83
2022/04/20 10:25:51;;;;;;;5.70;4.33;;;13.10;1.00;;;;;;4993696;28;20451;-82
2022/04/20 10:28:27;;;;;;;5.50;4.67;;;13.30;1.00;;;;;;4994621;28;20499;-81
2022/04/20 10:31:12;;;;;;;7.00;4.83;;;13.50;1.00;;;;;;5011567;28;20509;-83
2022/04/20 10:33:44;;;;;;;4.93;4.03;;;13.70;1.00;;;;;;5005531;28;20483;-82
2022/04/20 10:36:15;;;;;;;6.20;4.37;;;13.70;1.00;;;;;;5006740;28;20470;-81
2022/04/20 10:38:47;;;;;;;5.60;3.87;;;13.50;1.00;;;;;;5008014;28;20536;-82
2022/04/20 10:41:17;;;;;;;5.30;4.20;;;13.40;1.00;;;;;;5013456;28;20512;-82
2022/04/20 10:44:07;;;;;;;5.70;4.60;;;13.40;1.00;;;;;;5017118;28;20398;-80
2022/04/20 10:46:35;;;;;;;8.73;5.17;;;13.10;1.00;;;;;;5007827;28;20451;-82
2022/04/20 10:49:16;;;;;;;6.40;5.00;;;12.80;1.00;;;;;;5009887;28;20506;-81
2022/04/20 10:51:51;;;;;;;8.20;5.90;;;12.50;1.00;;;;;;5013998;28;20443;-82
2022/04/20 10:54:29;;;;;;;5.00;4.40;;;12.20;1.00;;;;;;5020659;28;20476;-83
2022/04/20 10:57:11;;;;;;;9.47;5.57;;;12.00;1.00;;;;;;5010195;28;21147;-82
2022/04/20 10:59:39;;;;;;;8.17;5.33;;;11.90;1.00;;;;;;5014475;28;20450;-82
2022/04/20 11:02:20;;;;;;;5.50;4.37;;;11.90;1.00;;;;;;4994406;28;20474;-82
2022/04/20 11:04:50;;;;;;;6.80;4.80;;;11.90;1.00;;;;;;4990326;28;20558;-82
2022/04/20 11:07:30;;;;;;;12.20;6.30;;;11.90;1.00;;;;;;4987383;28;20447;-81
2022/04/20 11:10:08;;;;;;;8.47;5.17;;;12.00;1.00;;;;;;5008713;28;20458;-82
2022/04/20 11:18:47;;;;;;;5.43;4.10;;;12.10;1.00;;;;;;5012080;28;20454;-81
2022/04/20 11:21:19;;;;;;;10.53;5.17;;;12.20;1.00;;;;;;5002361;28;20427;-80
2022/04/20 11:23:50;;;;;;;7.63;5.70;;;12.20;1.00;;;;;;4997865;28;20423;-82
2022/04/20 11:26:19;;;;;;;8.23;4.80;;;12.30;1.00;;;;;;5008202;28;20521;-81
2022/04/20 11:28:48;;;;;;;5.93;4.60;;;12.50;1.00;;;;;;5011142;28;20472;-80
2022/04/20 11:31:15;;;;;;;9.40;5.07;;;12.60;1.00;;;;;;5012724;28;20470;-81
2022/04/20 11:33:50;;;;;;;5.50;3.73;;;12.80;1.00;;;;;;5013706;28;20527;-82
2022/04/20 11:36:18;;;;;;;6.87;4.90;;;12.90;1.00;;;;;;5011503;28;20480;-82
2022/04/20 11:38:50;;;;;;;7.00;4.90;;;13.10;1.00;;;;;;5005338;28;20510;-82
2022/04/20 11:41:20;;;;;;;9.73;6.63;;;13.30;1.00;;;;;;5010264;28;20761;-82
2022/04/20 11:43:50;;;;;;;6.50;4.83;;;13.50;1.00;;;;;;5007321;28;20453;-82
2022/04/20 11:46:20;;;;;;;8.00;4.67;;;13.60;1.00;;;;;;5007470;28;20457;-80
2022/04/20 11:48:54;;;;;;;7.93;4.43;;;13.70;1.00;;;;;;5006151;28;20423;-80
2022/04/20 11:51:28;;;;;;;6.67;4.27;;;13.90;1.00;;;;;;5010286;28;20661;-80
2022/04/20 11:53:56;;;;;;;7.53;5.00;;;14.10;1.00;;;;;;4989577;28;20477;-80
2022/04/20 11:56:33;;;;;;;5.20;4.17;;;14.40;1.00;;;;;;4974417;28;20554;-80
2022/04/20 11:59:00;;;;;;;5.97;3.40;;;14.70;1.00;;;;;;4982332;28;20551;-80
2022/04/20 12:01:33;;;;;;;6.30;4.00;;;15.10;1.00;;;;;;4987757;28;20461;-79
2022/04/20 12:04:04;;;;;;;6.33;4.17;;;16.00;1.00;;;;;;5001441;28;20987;-79
2022/04/20 12:06:31;;;;;;;6.10;4.17;;;17.10;1.00;;;;;;5012632;28;20448;-80
2022/04/20 12:08:59;;;;;;;5.30;4.10;;;17.80;1.00;;;;;;5000768;28;21240;-79
2022/04/20 12:11:27;;;;;;;4.00;3.30;;;17.50;1.00;;;;;;4997074;28;20465;-80
2022/04/20 12:13:58;;;;;;;5.37;3.43;;;17.20;1.00;;;;;;5005368;28;20441;-79
2022/04/20 12:16:27;;;;;;;5.40;3.33;;;16.90;1.00;;;;;;4987943;28;20477;-81
2022/04/20 12:18:54;;;;;;;6.93;3.60;;;16.80;1.00;;;;;;5002580;28;20473;-80
2022/04/20 12:22:04;;;;;;;;;;;;;;;;;;;;;
2022/04/20 14:14:01;;;;;;;;;;;;;;;;;;;;;
2022/04/20 14:16:31;;;;;;;5.73;4.00;;;19.00;1.00;;;;;;5003203;28;39750;-84
2022/04/20 14:18:58;;;;;;;5.00;3.40;;;19.00;1.00;;;;;;5017970;28;20964;-81
2022/04/20 14:21:32;;;;;;;3.83;2.93;;;19.00;1.00;;;;;;5020766;28;20616;-80
2022/04/20 14:24:08;;;;;;;5.23;2.90;;;19.20;1.00;;;;;;5013856;28;20464;-80
2022/04/20 14:32:13;;;;;;;5.13;3.53;;;19.40;1.00;;;;;;4993620;28;21034;-82
2022/04/20 14:34:41;;;;;;;7.63;3.63;;;19.20;1.00;;;;;;4977606;28;20443;-81
2022/04/20 14:37:09;;;;;;;5.70;3.20;;;19.00;1.00;;;;;;4991028;28;20585;-75
2022/04/20 14:39:38;;;;;;;3.60;2.67;;;18.80;1.00;;;;;;4975866;28;20459;-77
2022/04/20 14:42:09;;;;;;;4.77;2.83;;;18.80;1.00;;;;;;4981630;28;20559;-76
2022/04/20 14:44:37;;;;;;;7.90;3.77;;;18.90;1.00;;;;;;4985319;28;20432;-77
2022/04/20 14:47:11;;;;;;;5.90;3.00;;;18.90;1.00;;;;;;4992743;28;20499;-78
2022/04/20 14:49:39;;;;;;;4.50;3.10;;;19.20;1.00;;;;;;4966606;28;20443;-78
2022/04/20 14:52:12;;;;;;;4.20;3.13;;;19.40;1.00;;;;;;4980793;28;20613;-78
2022/04/20 14:54:40;;;;;;;5.80;3.40;;;19.40;1.00;;;;;;4985677;28;21367;-76
2022/04/20 14:57:09;;;;;;;3.87;3.00;;;19.20;1.00;;;;;;5002702;28;20447;-76
2022/04/20 14:59:37;;;;;;;5.13;2.70;;;19.10;1.00;;;;;;5004227;28;20505;-76
2022/04/20 15:02:08;;;;;;;5.07;3.10;;;19.10;1.00;;;;;;4997317;28;20457;-78
2022/04/20 15:04:35;;;;;;;4.57;3.20;;;18.90;1.00;;;;;;4980092;28;20546;-79
2022/04/20 15:07:02;;;;;;;5.00;3.87;;;18.70;1.00;;;;;;5000035;28;21425;-77
2022/04/20 15:09:30;;;;;;;5.83;3.30;;;18.50;1.00;;;;;;4997073;28;20501;-76
2022/04/20 15:12:00;;;;;;;4.73;3.00;;;18.20;1.00;;;;;;4993855;28;20459;-77
2022/04/20 15:14:29;;;;;;;5.93;4.90;;;17.90;1.00;;;;;;4978250;28;20471;-76
2022/04/20 15:16:57;;;;;;;5.20;2.93;;;17.70;1.00;;;;;;4981330;28;20484;-81
2022/04/20 15:19:32;;;;;;;5.47;3.50;;;17.50;1.00;;;;;;4982357;28;20479;-78
2022/04/20 15:21:59;;;;;;;5.43;2.97;;;17.40;1.00;;;;;;4987658;28;20465;-78
2022/04/20 15:24:29;;;;;;;3.90;2.93;;;17.20;1.00;;;;;;4993687;28;20447;-79
2022/04/20 15:26:56;;;;;;;4.77;3.00;;;17.00;1.00;;;;;;4994460;28;20596;-80
2022/04/20 15:29:24;;;;;;;3.90;2.90;;;16.90;1.00;;;;;;4989589;28;20486;-80
2022/04/20 15:31:54;;;;;;;5.50;2.53;;;16.90;1.00;;;;;;4984069;28;20482;-79
2022/04/20 15:34:22;;;;;;;7.60;3.00;;;16.90;1.00;;;;;;4975830;28;20546;-80
2022/04/20 15:36:50;;;;;;;3.50;2.60;;;17.00;1.00;;;;;;4976972;28;20554;-80
2022/04/20 15:39:20;;;;;;;4.63;2.87;;;17.00;1.00;;;;;;4973617;28;20490;-83
2022/04/20 15:41:51;;;;;;;4.10;2.90;;;17.00;1.00;;;;;;4985085;28;20574;-84
2022/04/20 15:44:26;;;;;;;4.60;2.60;;;17.10;1.00;;;;;;4981664;28;20490;-79
2022/04/20 15:46:52;;;;;;;7.63;2.90;;;17.00;1.00;;;;;;4973187;28;20926;-80
2022/04/20 15:49:36;;;;;;;6.90;2.80;;;17.00;1.00;;;;;;4973743;28;20625;-80
2022/04/20 15:52:04;;;;;;;4.57;2.77;;;17.00;1.00;;;;;;4975024;28;20501;-78
2022/04/20 15:54:32;;;;;;;4.40;2.33;;;16.90;1.00;;;;;;4980564;28;20458;-81
2022/04/20 16:02:27;;;;;;;4.90;3.30;;;16.60;1.00;;;;;;4981650;28;20457;-80
2022/04/20 16:04:55;;;;;;;3.70;2.70;;;16.50;1.00;;;;;;4994724;28;20698;-78
2022/04/20 16:07:25;;;;;;;5.47;2.33;;;16.40;1.00;;;;;;4990832;28;20541;-83
2022/04/20 16:09:53;;;;;;;4.90;2.67;;;16.30;1.00;;;;;;4995593;28;20523;-79
2022/04/20 16:12:20;;;;;;;3.33;2.03;;;16.20;1.00;;;;;;5003136;28;20511;-81
2022/04/20 16:14:47;;;;;;;6.53;3.20;;;16.10;1.00;;;;;;5001840;28;20468;-79
2022/04/20 16:17:14;;;;;;;5.10;2.20;;;15.90;1.00;;;;;;5005767;28;20469;-77
2022/04/20 16:19:40;;;;;;;7.00;2.33;;;15.80;1.00;;;;;;4999765;28;20472;-77
2022/04/20 16:22:08;;;;;;;4.50;2.60;;;15.70;1.00;;;;;;4996918;28;20552;-79
2022/04/20 16:24:35;;;;;;;5.67;3.07;;;15.50;1.00;;;;;;4984180;28;20409;-78
2022/04/20 16:27:02;;;;;;;3.93;2.23;;;15.50;1.00;;;;;;4982464;28;20478;-80
2022/04/20 16:29:29;;;;;;;4.70;2.50;;;15.50;1.00;;;;;;4979740;28;20540;-80
2022/04/20 16:31:56;;;;;;;3.57;2.57;;;15.50;1.00;;;;;;4979947;28;20510;-80
2022/04/20 16:34:23;;;;;;;5.60;2.90;;;15.40;1.00;;;;;;4981490;28;21016;-79
2022/04/20 16:36:54;;;;;;;4.43;2.60;;;15.30;1.00;;;;;;5001666;28;20491;-79
2022/04/20 16:39:23;;;;;;;4.80;3.33;;;15.40;1.00;;;;;;4999445;28;20499;-81
2022/04/20 16:41:50;;;;;;;4.00;2.50;;;15.30;1.00;;;;;;4998932;28;20523;-78
2022/04/20 16:44:17;;;;;;;4.70;2.53;;;15.30;1.00;;;;;;4995950;28;20430;-79
2022/04/20 16:46:44;;;;;;;6.33;2.83;;;15.40;1.00;;;;;;4999037;28;20471;-80
2022/04/20 16:49:10;;;;;;;5.20;2.60;;;15.30;1.00;;;;;;4998048;28;20434;-80